createdAt,value
2023-02-02T00:02:27.545Z,5.42
2023-02-02T00:04:59.037Z,5.51
2023-02-02T00:07:28.641Z,5.41
2023-02-02T00:09:58.084Z,5.43
2023-02-02T00:12:28.225Z,5.39
2023-02-02T00:14:57.803Z,5.54
2023-02-02T00:17:27.517Z,5.73
2023-02-02T00:19:58.301Z,5.74
2023-02-02T00:22:28.166Z,5.84
2023-02-02T00:24:57.558Z,5.65
2023-02-02T00:27:27.272Z,5.97
2023-02-02T00:29:57.553Z,6.12
2023-02-02T00:32:27.126Z,5.83
2023-02-02T00:34:56.462Z,5.90
2023-02-02T00:37:27.549Z,5.98
2023-02-02T00:39:56.854Z,6.23
2023-02-02T00:42:26.479Z,6.27
2023-02-02T00:45:13.046Z,6.09
2023-02-02T00:47:42.773Z,6.06
2023-02-02T00:50:14.536Z,6.31
2023-02-02T00:52:45.762Z,6.32
2023-02-02T00:55:16.303Z,6.19
2023-02-02T00:57:46.193Z,6.51
2023-02-02T01:00:17.580Z,6.25
2023-02-02T01:02:47.698Z,6.26
2023-02-02T01:05:17.338Z,6.34
2023-02-02T01:07:48.905Z,6.33
2023-02-02T01:10:19.290Z,6.35
2023-02-02T01:12:48.833Z,6.40
2023-02-02T01:15:18.447Z,6.55
2023-02-02T01:17:48.253Z,6.54
2023-02-02T01:20:20.348Z,6.52
2023-02-02T01:22:51.887Z,6.36
2023-02-02T01:25:21.355Z,6.30
2023-02-02T01:27:51.687Z,6.30
2023-02-02T01:30:21.127Z,6.08
2023-02-02T01:32:51.535Z,6.22
2023-02-02T01:35:21.608Z,5.87
2023-02-02T01:37:53.132Z,5.91
2023-02-02T01:40:22.498Z,5.76
2023-02-02T01:42:52.196Z,5.74
2023-02-02T01:45:29.394Z,5.98
2023-02-02T01:48:01.623Z,5.75
2023-02-02T01:50:34.306Z,5.71
2023-02-02T01:53:08.480Z,5.66
2023-02-02T01:55:40.862Z,5.68
2023-02-02T01:58:13.133Z,5.72
2023-02-02T02:00:47.001Z,5.89
2023-02-02T02:03:20.153Z,5.60
2023-02-02T02:05:53.923Z,5.69
2023-02-02T02:08:28.661Z,5.61
2023-02-02T02:10:59.090Z,5.64
2023-02-02T02:13:44.099Z,5.50
2023-02-02T02:16:22.249Z,5.39
2023-02-02T02:19:05.655Z,5.49
2023-02-02T02:22:04.159Z,5.46
2023-02-02T02:25:29.842Z,5.45
2023-02-02T02:28:45.758Z,5.52
2023-02-02T02:31:41.024Z,5.43
2023-02-02T02:34:19.248Z,5.56
2023-02-02T02:36:52.875Z,5.57
2023-02-02T02:39:29.152Z,5.43
2023-02-02T02:42:06.474Z,5.43
2023-02-02T02:44:37.743Z,5.42
2023-02-02T02:47:09.242Z,5.58
2023-02-02T02:49:46.509Z,5.39
2023-02-02T02:52:17.005Z,5.47
2023-02-02T02:54:49.924Z,5.53
2023-02-02T02:57:43.052Z,5.57
2023-02-02T03:00:31.721Z,5.34
2023-02-02T03:03:11.144Z,5.33
2023-02-02T03:05:51.860Z,5.31
2023-02-02T03:08:26.232Z,5.12
2023-02-02T03:10:57.558Z,5.31
2023-02-02T03:13:28.528Z,5.44
2023-02-02T03:15:57.948Z,5.31
2023-02-02T03:18:30.628Z,5.42
2023-02-02T03:21:01.453Z,5.31
2023-02-02T03:23:30.935Z,5.43
2023-02-02T03:26:00.176Z,5.30
2023-02-02T03:28:30.718Z,5.28
2023-02-02T03:36:05.344Z,5.42
2023-02-02T03:38:35.154Z,5.17
2023-02-02T03:41:04.453Z,5.30
2023-02-02T03:43:33.987Z,5.36
2023-02-02T03:46:05.650Z,5.06
2023-02-02T03:48:37.924Z,5.34
2023-02-02T03:51:13.021Z,5.48
2023-02-02T03:53:44.519Z,5.21
2023-02-02T03:56:13.765Z,5.20
2023-02-02T03:58:43.221Z,5.26
2023-02-02T04:01:14.394Z,5.28
2023-02-02T04:03:46.315Z,5.19
2023-02-02T04:06:16.962Z,5.31
2023-02-02T04:08:46.402Z,5.12
2023-02-02T04:11:15.671Z,5.10
2023-02-02T04:13:45.435Z,5.04
2023-02-02T04:16:14.602Z,5.09
2023-02-02T04:18:44.096Z,4.96
2023-02-02T04:21:13.445Z,4.80
2023-02-02T04:23:44.311Z,5.07
2023-02-02T04:26:13.610Z,5.14
2023-02-02T04:28:43.025Z,5.23
2023-02-02T04:31:12.254Z,5.16
2023-02-02T04:33:41.719Z,5.35
2023-02-02T04:36:11.521Z,5.43
2023-02-02T04:38:40.907Z,5.41
2023-02-02T04:41:14.848Z,5.53
2023-02-02T04:43:44.280Z,5.55
2023-02-02T04:46:14.089Z,5.61
2023-02-02T04:48:43.921Z,5.57
2023-02-02T04:51:15.612Z,5.71
2023-02-02T04:53:44.992Z,5.67
2023-02-02T04:56:17.804Z,5.77
2023-02-02T04:58:47.891Z,5.77
2023-02-02T05:01:19.438Z,5.77
2023-02-02T05:03:49.509Z,5.59
2023-02-02T05:06:19.532Z,5.37
2023-02-02T05:08:49.465Z,5.49
2023-02-02T05:11:21.960Z,5.53
2023-02-02T05:13:53.261Z,5.47
2023-02-02T05:16:23.937Z,5.57
2023-02-02T05:18:55.179Z,5.60
2023-02-02T05:21:25.224Z,5.48
2023-02-02T05:23:54.714Z,5.58
2023-02-02T05:26:27.917Z,5.50
2023-02-02T05:28:58.647Z,5.49
2023-02-02T05:31:28.218Z,5.48
2023-02-02T05:33:57.679Z,5.36
2023-02-02T05:36:26.906Z,5.48
2023-02-02T05:38:56.404Z,5.55
2023-02-02T05:41:26.837Z,5.68
2023-02-02T05:43:56.414Z,5.81
2023-02-02T05:46:25.525Z,5.57
2023-02-02T05:48:54.886Z,5.67
2023-02-02T05:51:28.182Z,5.68
2023-02-02T05:53:59.987Z,5.65
2023-02-02T05:56:31.504Z,5.62
2023-02-02T05:59:01.417Z,5.56
2023-02-02T06:01:30.610Z,5.62
2023-02-02T06:04:00.238Z,5.43
2023-02-02T06:06:29.490Z,5.52
2023-02-02T06:08:59.033Z,5.62
2023-02-02T06:11:28.268Z,5.58
2023-02-02T06:13:59.072Z,5.53
2023-02-02T06:16:28.212Z,5.56
2023-02-02T06:18:58.200Z,5.77
2023-02-02T06:21:31.135Z,5.51
2023-02-02T06:24:02.283Z,5.52
2023-02-02T06:26:31.635Z,5.71
2023-02-02T06:29:02.986Z,5.71
2023-02-02T06:31:32.328Z,5.62
2023-02-02T06:34:02.506Z,5.74
2023-02-02T06:36:31.776Z,5.75
2023-02-02T06:39:02.362Z,5.84
2023-02-02T06:41:31.639Z,5.83
2023-02-02T06:44:02.768Z,5.95
2023-02-02T06:46:31.966Z,5.63
2023-02-02T06:49:01.784Z,5.66
2023-02-02T06:51:30.932Z,5.73
2023-02-02T06:54:00.252Z,5.80
2023-02-02T06:56:29.374Z,5.57
2023-02-02T06:58:58.883Z,5.81
2023-02-02T07:01:29.430Z,5.65
2023-02-02T07:03:58.979Z,5.71
2023-02-02T07:06:29.849Z,5.65
2023-02-02T07:09:02.797Z,5.61
2023-02-02T07:11:35.632Z,5.55
2023-02-02T07:14:11.162Z,5.72
2023-02-02T07:16:41.638Z,5.57
2023-02-02T07:19:11.339Z,5.51
2023-02-02T07:21:40.407Z,5.64
2023-02-02T07:24:10.041Z,5.64
2023-02-02T07:26:39.240Z,5.55
2023-02-02T07:29:08.808Z,5.52
2023-02-02T07:31:38.096Z,5.46
2023-02-02T07:34:09.540Z,5.60
2023-02-02T07:36:38.887Z,5.56
2023-02-02T07:39:08.447Z,5.57
2023-02-02T07:41:38.628Z,5.38
2023-02-02T07:44:17.610Z,5.36
2023-02-02T07:46:48.412Z,5.47
2023-02-02T07:49:20.680Z,5.36
2023-02-02T07:51:49.780Z,5.27
2023-02-02T07:54:19.244Z,5.42
2023-02-02T07:56:48.499Z,5.42
2023-02-02T07:59:17.968Z,5.70
2023-02-02T08:01:47.061Z,5.69
2023-02-02T08:04:17.335Z,5.77
2023-02-02T08:06:48.380Z,5.90
2023-02-02T08:09:17.786Z,6.04
2023-02-02T08:11:46.851Z,6.12
2023-02-02T08:14:16.249Z,6.21
2023-02-02T08:16:45.478Z,6.38
2023-02-02T08:19:15.075Z,6.68
2023-02-02T08:21:44.260Z,6.46
2023-02-02T08:24:15.111Z,6.46
2023-02-02T08:26:44.445Z,6.84
2023-02-02T08:29:17.306Z,6.95
2023-02-02T08:31:47.199Z,6.47
2023-02-02T08:34:16.636Z,6.88
2023-02-02T08:36:45.797Z,6.92
2023-02-02T08:39:16.565Z,7.26
2023-02-02T08:41:45.731Z,7.07
2023-02-02T08:44:17.212Z,7.27
2023-02-02T08:46:47.715Z,7.31
2023-02-02T08:49:17.254Z,7.25
2023-02-02T08:51:46.521Z,7.43
2023-02-02T08:54:17.304Z,7.15
2023-02-02T08:56:46.460Z,6.63
2023-02-02T08:59:15.883Z,6.44
2023-02-02T09:01:44.928Z,6.59
2023-02-02T09:04:17.057Z,6.65
2023-02-02T09:06:46.463Z,6.98
2023-02-02T09:09:18.135Z,6.72
2023-02-02T09:11:48.098Z,7.14
2023-02-02T09:14:17.734Z,7.21
2023-02-02T09:16:46.849Z,6.89
2023-02-02T09:19:16.298Z,7.17
2023-02-02T09:21:45.408Z,6.90
2023-02-02T09:24:18.091Z,6.87
2023-02-02T09:26:47.523Z,6.72
2023-02-02T09:29:18.893Z,7.11
2023-02-02T09:31:48.180Z,6.95
2023-02-02T09:34:17.946Z,6.69
2023-02-02T09:36:47.552Z,6.97
2023-02-02T09:39:19.580Z,6.83
2023-02-02T09:42:29.397Z,7.07
2023-02-02T09:45:03.428Z,7.05
2023-02-02T09:47:52.336Z,7.66
2023-02-02T09:50:39.664Z,8.04
2023-02-02T09:53:29.794Z,8.04
2023-02-02T09:56:05.643Z,7.90
2023-02-02T09:58:41.006Z,6.61
2023-02-02T10:01:13.684Z,6.47
2023-02-02T10:03:46.637Z,5.99
2023-02-02T10:06:26.776Z,5.90
2023-02-02T10:09:00.567Z,6.14
2023-02-02T10:11:37.335Z,6.49
2023-02-02T10:14:14.333Z,7.02
2023-02-02T10:16:44.192Z,7.23
2023-02-02T10:19:15.724Z,7.29
2023-02-02T10:21:53.072Z,7.15
2023-02-02T10:24:25.455Z,7.29
2023-02-02T10:26:59.360Z,8.00
2023-02-02T10:29:48.613Z,8.35
2023-02-02T10:32:25.516Z,8.29
2023-02-02T10:35:18.712Z,7.93
2023-02-02T10:37:56.785Z,7.48
2023-02-02T10:40:42.364Z,6.80
2023-02-02T10:43:46.965Z,6.83
2023-02-02T10:46:21.424Z,6.78
2023-02-02T10:48:52.955Z,7.11
2023-02-02T10:51:27.683Z,7.13
2023-02-02T10:54:01.161Z,7.00
2023-02-02T10:56:38.009Z,7.60
2023-02-02T10:59:15.780Z,7.77
2023-02-02T11:01:49.015Z,10.89
2023-02-02T11:04:42.947Z,13.17
2023-02-02T11:07:20.400Z,16.07
2023-02-02T11:09:51.158Z,16.38
2023-02-02T11:12:26.958Z,19.02
2023-02-02T11:15:05.261Z,19.00
2023-02-02T11:17:39.541Z,18.63
2023-02-02T11:20:25.777Z,18.88
2023-02-02T11:23:03.512Z,19.03
2023-02-02T11:25:36.086Z,20.05
2023-02-02T11:28:18.929Z,21.23
2023-02-02T11:30:52.715Z,21.04
2023-02-02T11:33:28.809Z,20.82
2023-02-02T11:36:01.829Z,20.39
2023-02-02T11:38:31.396Z,21.90
2023-02-02T11:41:05.026Z,19.62
2023-02-02T11:43:41.331Z,18.87
2023-02-02T11:46:21.198Z,17.24
2023-02-02T11:48:55.663Z,14.97
2023-02-02T11:51:27.618Z,12.27
2023-02-02T11:54:06.320Z,10.36
2023-02-02T11:56:38.062Z,9.20
2023-02-02T11:59:07.479Z,8.43
2023-02-02T12:01:40.640Z,8.04
2023-02-02T12:04:26.217Z,7.68
2023-02-02T12:06:57.115Z,7.75
2023-02-02T12:09:27.836Z,9.17
2023-02-02T12:12:04.072Z,12.68
2023-02-02T12:14:41.839Z,16.45
2023-02-02T12:17:29.079Z,17.21
2023-02-02T12:20:23.112Z,13.94
2023-02-02T12:23:09.235Z,10.98
2023-02-02T12:26:02.483Z,8.81
2023-02-02T12:28:50.540Z,7.06
2023-02-02T12:31:29.096Z,6.67
2023-02-02T12:34:11.933Z,6.38
2023-02-02T12:36:51.679Z,6.30
2023-02-02T12:39:34.325Z,6.01
2023-02-02T12:42:25.181Z,5.68
2023-02-02T12:45:09.514Z,5.25
2023-02-02T12:47:47.227Z,5.45
2023-02-02T12:50:29.903Z,5.13
2023-02-02T12:53:18.143Z,5.24
2023-02-02T12:55:52.709Z,5.24
2023-02-02T12:58:33.646Z,5.07
2023-02-02T13:01:26.485Z,5.21
2023-02-02T13:04:14.977Z,5.50
2023-02-02T13:07:13.199Z,5.41
2023-02-02T13:09:49.980Z,5.60
2023-02-02T13:12:23.677Z,5.48
2023-02-02T13:14:57.697Z,5.50
2023-02-02T13:17:31.335Z,5.55
2023-02-02T13:20:04.682Z,5.72
2023-02-02T13:22:40.328Z,5.96
2023-02-02T13:25:19.285Z,6.00
2023-02-02T13:27:50.121Z,5.98
2023-02-02T13:30:29.894Z,5.86
2023-02-02T13:33:03.535Z,5.96
2023-02-02T13:35:38.747Z,5.75
2023-02-02T13:38:21.186Z,6.17
2023-02-02T13:40:52.377Z,5.97
2023-02-02T13:43:39.806Z,5.63
2023-02-02T13:46:21.847Z,5.67
2023-02-02T13:49:00.525Z,6.48
2023-02-02T13:52:03.428Z,7.07
2023-02-02T13:55:17.212Z,7.15
2023-02-02T13:58:14.743Z,6.85
2023-02-02T14:00:47.912Z,6.60
2023-02-02T14:03:32.309Z,7.05
2023-02-02T14:06:11.619Z,6.76
2023-02-02T14:08:47.815Z,6.54
2023-02-02T14:11:26.078Z,6.41
2023-02-02T14:14:17.297Z,6.23
2023-02-02T14:16:56.795Z,6.07
2023-02-02T14:19:51.057Z,6.02
2023-02-02T14:22:37.457Z,6.28
2023-02-02T14:25:55.422Z,6.30
2023-02-02T14:28:44.629Z,6.31
2023-02-02T14:31:44.259Z,6.13
2023-02-02T14:34:33.839Z,5.83
2023-02-02T14:37:44.103Z,5.68
2023-02-02T14:40:31.309Z,5.73
2023-02-02T14:43:30.021Z,5.67
2023-02-02T14:46:32.952Z,5.61
2023-02-02T14:49:15.945Z,5.54
2023-02-02T14:51:55.265Z,5.35
2023-02-02T14:54:31.792Z,5.10
2023-02-02T14:57:04.548Z,5.19
2023-02-02T14:59:37.911Z,4.92
2023-02-02T15:02:23.111Z,4.78
2023-02-02T15:04:52.299Z,4.70
2023-02-02T15:07:55.655Z,4.71
2023-02-02T15:10:57.798Z,4.62
2023-02-02T15:13:30.049Z,4.46
2023-02-02T15:16:14.201Z,4.18
2023-02-02T15:18:49.244Z,4.09
2023-02-02T15:21:23.817Z,4.07
2023-02-02T15:23:53.212Z,4.28
2023-02-02T15:26:27.072Z,4.12
2023-02-02T15:29:00.721Z,3.97
2023-02-02T15:31:35.054Z,4.09
2023-02-02T15:34:16.191Z,4.06
2023-02-02T15:36:47.861Z,4.02
2023-02-02T15:39:28.260Z,4.06
2023-02-02T15:42:17.262Z,4.20
2023-02-02T15:44:46.912Z,4.10
2023-02-02T15:47:19.227Z,4.17
2023-02-02T15:49:51.168Z,4.26
2023-02-02T15:52:26.396Z,4.38
2023-02-02T15:54:57.366Z,4.08
2023-02-02T15:57:32.471Z,3.79
2023-02-02T16:00:22.862Z,3.87
2023-02-02T16:02:54.522Z,4.16
2023-02-02T16:05:46.303Z,4.43
2023-02-02T16:08:20.043Z,4.17
2023-02-02T16:10:50.171Z,3.92
2023-02-02T16:13:27.613Z,3.78
2023-02-02T16:15:59.197Z,4.03
2023-02-02T16:18:29.225Z,3.74
2023-02-02T16:21:03.124Z,3.73
2023-02-02T16:23:36.261Z,3.51
2023-02-02T16:26:07.992Z,3.73
2023-02-02T16:28:37.603Z,3.65
2023-02-02T16:31:07.392Z,3.84
2023-02-02T16:33:39.138Z,3.96
2023-02-02T16:36:25.570Z,4.03
2023-02-02T16:38:57.744Z,3.80
2023-02-02T16:41:30.099Z,3.71
2023-02-02T16:44:32.891Z,3.62
2023-02-02T16:47:02.554Z,3.73
2023-02-02T16:49:32.571Z,3.50
2023-02-02T16:52:18.123Z,3.41
2023-02-02T16:54:54.180Z,3.49
2023-02-02T16:57:27.252Z,3.49
2023-02-02T16:59:58.608Z,3.43
2023-02-02T17:02:32.805Z,3.56
2023-02-02T17:05:06.913Z,3.56
2023-02-02T17:07:39.399Z,3.68
2023-02-02T17:10:16.256Z,3.84
2023-02-02T17:12:46.726Z,3.85
2023-02-02T17:15:37.530Z,3.46
2023-02-02T17:18:07.359Z,3.80
2023-02-02T17:20:36.717Z,3.59
2023-02-02T17:23:10.654Z,3.66
2023-02-02T17:25:43.281Z,3.43
2023-02-02T17:28:14.366Z,3.33
2023-02-02T17:30:44.760Z,3.26
2023-02-02T17:33:16.275Z,3.18
2023-02-02T17:35:54.988Z,3.28
2023-02-02T17:38:28.477Z,2.99
2023-02-02T17:41:01.491Z,3.05
2023-02-02T17:43:31.968Z,2.92
2023-02-02T17:46:01.471Z,3.04
2023-02-02T17:48:31.142Z,2.91
2023-02-02T17:51:03.204Z,2.82
2023-02-02T17:53:34.620Z,2.90
2023-02-02T17:56:03.976Z,2.91
2023-02-02T17:58:33.817Z,3.05
2023-02-02T18:01:03.288Z,2.87
2023-02-02T18:03:36.099Z,2.80
2023-02-02T18:06:05.735Z,2.80
2023-02-02T18:08:36.750Z,2.83
2023-02-02T18:11:06.290Z,2.99
2023-02-02T18:13:35.800Z,2.85
2023-02-02T18:16:08.081Z,3.11
2023-02-02T18:18:37.866Z,2.98
2023-02-02T18:21:10.703Z,2.95
2023-02-02T18:23:42.304Z,2.98
2023-02-02T18:26:13.697Z,3.09
2023-02-02T18:28:43.311Z,3.02
2023-02-02T18:31:14.808Z,3.13
2023-02-02T18:33:44.906Z,3.20
2023-02-02T18:36:17.853Z,3.26
2023-02-02T18:38:50.928Z,3.17
2023-02-02T18:41:21.522Z,3.21
2023-02-02T18:43:54.915Z,3.24
2023-02-02T18:46:24.445Z,3.23
2023-02-02T18:48:53.921Z,3.36
2023-02-02T18:51:23.181Z,3.36
2023-02-02T18:54:00.502Z,3.29
2023-02-02T18:56:31.011Z,3.06
2023-02-02T18:59:00.958Z,3.19
2023-02-02T19:01:30.769Z,3.49
2023-02-02T19:04:00.958Z,3.31
2023-02-02T19:06:47.889Z,3.08
2023-02-02T19:09:18.899Z,2.93
2023-02-02T19:11:49.602Z,2.85
2023-02-02T19:14:21.477Z,2.93
2023-02-02T19:16:52.730Z,2.90
2023-02-02T19:19:25.667Z,3.22
2023-02-02T19:21:56.869Z,3.10
2023-02-02T19:24:29.802Z,3.12
2023-02-02T19:26:59.221Z,3.28
2023-02-02T19:29:37.105Z,3.37
2023-02-02T19:32:14.899Z,3.19
2023-02-02T19:34:44.338Z,3.36
2023-02-02T19:37:24.860Z,3.25
2023-02-02T19:40:01.220Z,3.07
2023-02-02T19:42:30.954Z,3.14
2023-02-02T19:45:00.603Z,2.99
2023-02-02T19:47:33.281Z,3.17
2023-02-02T19:50:16.887Z,3.14
2023-02-02T19:52:46.919Z,3.27
2023-02-02T19:55:29.621Z,3.39
2023-02-02T19:58:03.897Z,3.32
2023-02-02T20:00:41.110Z,3.46
2023-02-02T20:03:17.137Z,3.34
2023-02-02T20:05:48.275Z,3.32
2023-02-02T20:08:25.434Z,3.34
2023-02-02T20:11:00.756Z,3.30
2023-02-02T20:13:41.149Z,3.34
2023-02-02T20:16:16.755Z,3.19
2023-02-02T20:18:50.853Z,3.32
2023-02-02T20:21:26.664Z,3.29
2023-02-02T20:23:55.944Z,3.36
2023-02-02T20:26:30.457Z,3.01
2023-02-02T20:29:01.562Z,3.05
2023-02-02T20:31:37.778Z,3.17
2023-02-02T20:34:23.828Z,3.09
2023-02-02T20:36:54.228Z,3.09
2023-02-02T20:39:30.717Z,3.26
2023-02-02T20:42:01.658Z,3.06
2023-02-02T20:44:33.075Z,3.05
2023-02-02T20:47:02.962Z,3.42
2023-02-02T20:49:33.234Z,3.19
2023-02-02T20:52:05.285Z,3.45
2023-02-02T20:54:34.918Z,3.60
2023-02-02T20:57:06.828Z,3.50
2023-02-02T20:59:36.457Z,3.41
2023-02-02T21:02:06.432Z,3.27
2023-02-02T21:04:35.719Z,3.33
2023-02-02T21:07:05.517Z,3.12
2023-02-02T21:09:34.815Z,3.16
2023-02-02T21:12:05.961Z,3.19
2023-02-02T21:14:35.105Z,3.47
2023-02-02T21:17:14.366Z,3.15
2023-02-02T21:19:44.902Z,3.46
2023-02-02T21:22:15.003Z,3.31
2023-02-02T21:24:44.136Z,3.52
2023-02-02T21:27:15.038Z,3.32
2023-02-02T21:29:44.261Z,3.31
2023-02-02T21:32:13.894Z,3.55
2023-02-02T21:34:43.213Z,3.41
2023-02-02T21:37:15.150Z,3.41
2023-02-02T21:39:48.637Z,3.49
2023-02-02T21:42:21.803Z,3.47
2023-02-02T21:44:56.409Z,3.40
2023-02-02T21:47:31.220Z,3.40
2023-02-02T21:50:08.171Z,3.20
2023-02-02T21:52:37.888Z,3.11
2023-02-02T21:55:32.302Z,2.99
2023-02-02T21:58:13.174Z,2.86
2023-02-02T22:00:42.540Z,2.79
2023-02-02T22:03:35.732Z,2.69
2023-02-02T22:06:26.635Z,2.68
2023-02-02T22:09:03.165Z,2.59
2023-02-02T22:11:44.459Z,2.51
2023-02-02T22:14:21.006Z,2.39
2023-02-02T22:16:52.455Z,2.33
2023-02-02T22:19:34.441Z,2.20
2023-02-02T22:22:18.732Z,2.20
2023-02-02T22:24:53.625Z,2.13
2023-02-02T22:27:25.346Z,2.02
2023-02-02T22:29:59.781Z,1.94
2023-02-02T22:32:28.873Z,1.97
2023-02-02T22:34:58.302Z,1.85
2023-02-02T22:37:27.465Z,1.85
2023-02-02T22:39:58.190Z,1.73
2023-02-02T22:42:28.208Z,1.70
2023-02-02T22:44:59.182Z,1.73
2023-02-02T22:47:28.345Z,1.67
2023-02-02T22:49:57.837Z,1.49
2023-02-02T22:52:27.056Z,1.58
2023-02-02T22:54:56.430Z,1.39
2023-02-02T22:57:25.605Z,1.39
2023-02-02T22:59:54.993Z,1.43
2023-02-02T23:02:25.588Z,1.49
2023-02-02T23:04:55.259Z,1.47
2023-02-02T23:07:24.436Z,1.53
2023-02-02T23:09:54.129Z,1.56
2023-02-02T23:12:23.221Z,1.47
2023-02-02T23:14:52.687Z,1.56
2023-02-02T23:17:21.887Z,1.54
2023-02-02T23:19:52.791Z,1.54
2023-02-02T23:22:21.981Z,1.70
2023-02-02T23:24:51.408Z,1.66
2023-02-02T23:27:20.509Z,1.69
2023-02-02T23:29:50.067Z,1.65
2023-02-02T23:32:19.310Z,1.65
2023-02-02T23:34:48.649Z,1.59
2023-02-02T23:37:19.232Z,1.42
2023-02-02T23:39:48.656Z,1.38
2023-02-02T23:42:17.778Z,1.36
2023-02-02T23:44:47.226Z,1.29
2023-02-02T23:47:16.493Z,1.27
2023-02-02T23:49:46.589Z,1.15
2023-02-02T23:52:15.989Z,1.06
2023-02-02T23:54:46.894Z,0.96
2023-02-02T23:57:16.090Z,1.03
2023-02-02T23:59:45.487Z,0.75
